Time;durP1;ratioP1;P1;durP2;ratioP2;P2;SDS_P1;SDS_P2;PMS_P1;PMS_P2;Temp;Humidity;BMP_temperature;BMP_pressure;BME280_temperature;BME280_humidity;BME280_pressure;Samples;Min_cycle;Max_cycle;Signal;HPM_P1;HPM_P2
2024/01/22 00:01:25;;;;;;;12.93;7.23;;;;;;;;;;774111;179;919684;-65
2024/01/22 00:03:50;;;;;;;14.53;8.77;;;;;;;;;;774247;180;918271;-66
2024/01/22 00:06:16;;;;;;;14.23;8.77;;;;;;;;;;771437;180;921741;-65
2024/01/22 00:08:42;;;;;;;13.40;8.40;;;;;;;;;;776731;180;920258;-65
2024/01/22 00:11:08;;;;;;;11.73;8.00;;;;;;;;;;769305;180;918812;-66
2024/01/22 00:13:34;;;;;;;13.25;7.53;;;;;;;;;;770354;179;926127;-65
2024/01/22 00:16:00;;;;;;;14.73;8.83;;;;;;;;;;779809;180;919199;-66
2024/01/22 00:18:26;;;;;;;14.27;8.82;;;;;;;;;;777289;179;923881;-65
2024/01/22 00:20:51;;;;;;;13.70;9.30;;;;;;;;;;775826;179;919208;-65
2024/01/22 00:23:18;;;;;;;11.30;8.70;;;;;;;;;;778760;180;918994;-65
2024/01/22 00:25:44;;;;;;;14.33;7.87;;;;;;;;;;778923;179;918303;-65
2024/01/22 00:28:10;;;;;;;15.50;9.10;;;;;;;;;;771886;180;919055;-66
2024/01/22 00:30:36;;;;;;;15.63;8.67;;;;;;;;;;771672;179;917556;-65
2024/01/22 00:33:01;;;;;;;13.43;8.40;;;;;;;;;;774602;180;919143;-65
2024/01/22 00:35:27;;;;;;;19.20;7.50;;;;;;;;;;759577;181;918186;-65
2024/01/22 00:37:53;;;;;;;12.00;7.93;;;;;;;;;;772252;177;918800;-65
2024/01/22 00:40:19;;;;;;;16.17;8.00;;;;;;;;;;779356;180;919507;-65
2024/01/22 00:42:45;;;;;;;14.53;9.20;;;;;;;;;;772660;179;919230;-65
2024/01/22 00:45:11;;;;;;;11.93;8.20;;;;;;;;;;771020;179;1021050;-65
2024/01/22 00:47:36;;;;;;;14.47;8.97;;;;;;;;;;779866;179;919985;-65
2024/01/22 00:50:03;;;;;;;14.70;8.57;;;;;;;;;;769170;179;919480;-65
2024/01/22 00:52:28;;;;;;;19.07;8.37;;;;;;;;;;762899;179;932812;-65
2024/01/22 00:54:54;;;;;;;11.83;8.93;;;;;;;;;;775277;179;919793;-65
2024/01/22 00:57:20;;;;;;;15.67;8.73;;;;;;;;;;782591;179;925895;-66
2024/01/22 00:59:46;;;;;;;17.33;8.90;;;;;;;;;;774359;179;918995;-65
2024/01/22 01:02:12;;;;;;;14.93;7.75;;;;;;;;;;772655;179;918717;-65
2024/01/22 01:04:38;;;;;;;14.43;8.03;;;;;;;;;;783028;179;919501;-65
2024/01/22 01:07:04;;;;;;;13.60;8.17;;;;;;;;;;775520;179;920674;-63
2024/01/22 01:09:29;;;;;;;13.83;7.93;;;;;;;;;;772239;179;919386;-65
2024/01/22 01:11:55;;;;;;;13.67;8.40;;;;;;;;;;775684;180;915519;-65
2024/01/22 01:14:21;;;;;;;15.60;9.37;;;;;;;;;;772008;179;919263;-65
2024/01/22 01:16:47;;;;;;;13.10;8.10;;;;;;;;;;766388;181;928366;-65
2024/01/22 01:19:14;;;;;;;13.65;8.48;;;;;;;;;;775691;180;918696;-65
2024/01/22 01:21:39;;;;;;;14.87;8.70;;;;;;;;;;765795;180;918527;-65
2024/01/22 01:24:05;;;;;;;16.20;9.20;;;;;;;;;;771204;179;918231;-65
2024/01/22 01:26:31;;;;;;;12.67;8.60;;;;;;;;;;769808;179;919388;-65
2024/01/22 01:28:57;;;;;;;14.02;7.60;;;;;;;;;;776067;180;918829;-65
2024/01/22 01:31:28;;;;;;;14.07;8.43;;;;;;;;;;766022;180;919619;-66
2024/01/22 01:33:49;;;;;;;12.77;8.80;;;;;;;;;;769177;180;919049;-65
2024/01/22 01:36:14;;;;;;;11.03;7.77;;;;;;;;;;776797;180;917911;-65
2024/01/22 01:38:40;;;;;;;11.60;8.47;;;;;;;;;;771894;180;918864;-65
2024/01/22 01:41:06;;;;;;;13.03;9.17;;;;;;;;;;768099;180;919548;-65
2024/01/22 01:43:32;;;;;;;12.80;8.90;;;;;;;;;;779452;180;918613;-65
2024/01/22 01:45:58;;;;;;;16.97;8.73;;;;;;;;;;772673;180;918259;-65
2024/01/22 01:48:24;;;;;;;12.50;8.10;;;;;;;;;;772968;179;920197;-65
2024/01/22 01:50:50;;;;;;;14.27;7.93;;;;;;;;;;769765;178;919657;-65
2024/01/22 01:53:15;;;;;;;13.45;9.75;;;;;;;;;;759341;184;915580;-65
2024/01/22 01:55:41;;;;;;;14.13;8.47;;;;;;;;;;759047;181;919020;-66
2024/01/22 01:58:07;;;;;;;13.85;7.90;;;;;;;;;;770595;179;918037;-65
2024/01/22 02:00:33;;;;;;;20.90;9.03;;;;;;;;;;779566;180;918508;-64
2024/01/22 02:02:59;;;;;;;12.45;7.25;;;;;;;;;;759261;181;917923;-66
2024/01/22 02:05:25;;;;;;;10.87;7.63;;;;;;;;;;771774;179;918161;-65
2024/01/22 02:07:50;;;;;;;18.80;10.60;;;;;;;;;;784080;179;920280;-65
2024/01/22 02:10:16;;;;;;;10.83;7.20;;;;;;;;;;778350;179;918482;-65
2024/01/22 02:12:42;;;;;;;13.65;7.75;;;;;;;;;;777094;179;918118;-65
2024/01/22 02:15:08;;;;;;;12.57;7.90;;;;;;;;;;776725;180;919310;-65
2024/01/22 02:17:34;;;;;;;10.10;6.70;;;;;;;;;;769507;180;920669;-66
2024/01/22 02:20:00;;;;;;;10.50;6.50;;;;;;;;;;765554;180;918599;-66
2024/01/22 02:22:26;;;;;;;8.83;6.50;;;;;;;;;;759888;181;919472;-65
2024/01/22 02:24:52;;;;;;;10.15;6.87;;;;;;;;;;779055;180;918737;-66
2024/01/22 02:27:17;;;;;;;17.40;7.03;;;;;;;;;;773902;179;918746;-66
2024/01/22 02:29:44;;;;;;;13.57;7.55;;;;;;;;;;772640;179;920245;-65
2024/01/22 02:32:09;;;;;;;8.93;5.87;;;;;;;;;;780753;179;1021553;-66
2024/01/22 02:34:37;;;;;;;7.97;5.90;;;;;;;;;;763941;179;1018368;-66
2024/01/22 02:37:01;;;;;;;10.33;6.00;;;;;;;;;;770674;179;918823;-65
2024/01/22 02:39:27;;;;;;;12.40;7.00;;;;;;;;;;778676;179;915243;-71
2024/01/22 02:41:53;;;;;;;10.77;5.77;;;;;;;;;;775937;180;945188;-65
2024/01/22 02:44:19;;;;;;;11.07;6.77;;;;;;;;;;775077;180;919120;-65
2024/01/22 02:46:45;;;;;;;10.93;5.85;;;;;;;;;;776201;180;920842;-66
2024/01/22 02:49:10;;;;;;;11.10;6.60;;;;;;;;;;777885;180;919201;-65
2024/01/22 02:51:36;;;;;;;12.50;7.17;;;;;;;;;;772114;179;916069;-65
2024/01/22 02:54:02;;;;;;;14.57;7.87;;;;;;;;;;774186;180;915518;-65
2024/01/22 02:56:28;;;;;;;10.63;6.53;;;;;;;;;;779407;180;918190;-65
2024/01/22 02:58:54;;;;;;;10.57;6.30;;;;;;;;;;774210;179;918906;-65
2024/01/22 03:01:20;;;;;;;8.47;6.30;;;;;;;;;;771336;180;918711;-65
2024/01/22 03:03:45;;;;;;;12.77;6.37;;;;;;;;;;773056;180;918163;-66
2024/01/22 03:06:12;;;;;;;10.90;6.67;;;;;;;;;;770999;180;919498;-65
2024/01/22 03:08:37;;;;;;;11.67;6.93;;;;;;;;;;764318;179;1261346;-65
2024/01/22 03:11:04;;;;;;;14.90;7.07;;;;;;;;;;772271;180;918172;-65
2024/01/22 03:13:29;;;;;;;10.77;7.67;;;;;;;;;;775005;179;918693;-64
2024/01/22 03:15:55;;;;;;;12.33;8.03;;;;;;;;;;767720;180;919294;-65
2024/01/22 03:18:21;;;;;;;13.73;8.17;;;;;;;;;;772694;177;919106;-65
2024/01/22 03:20:46;;;;;;;16.58;8.95;;;;;;;;;;781104;179;919933;-65
2024/01/22 03:23:12;;;;;;;12.57;8.07;;;;;;;;;;777484;179;919431;-64
2024/01/22 03:25:38;;;;;;;16.30;8.27;;;;;;;;;;771333;179;951388;-65
2024/01/22 03:28:04;;;;;;;14.97;8.53;;;;;;;;;;777580;179;1021029;-65
2024/01/22 03:30:30;;;;;;;12.73;7.90;;;;;;;;;;777344;179;920144;-65
2024/01/22 03:32:56;;;;;;;12.93;8.30;;;;;;;;;;774839;179;916224;-67
2024/01/22 03:35:22;;;;;;;12.53;6.50;;;;;;;;;;777804;180;915875;-65
2024/01/22 03:37:48;;;;;;;16.60;6.93;;;;;;;;;;773304;179;916146;-65
2024/01/22 03:40:14;;;;;;;11.70;6.07;;;;;;;;;;777353;180;919604;-64
2024/01/22 03:42:40;;;;;;;14.57;7.25;;;;;;;;;;778228;179;919986;-65
2024/01/22 03:45:06;;;;;;;15.60;7.10;;;;;;;;;;770670;180;918158;-65
2024/01/22 03:47:32;;;;;;;14.80;7.03;;;;;;;;;;763550;179;919401;-65
2024/01/22 03:49:58;;;;;;;11.57;7.33;;;;;;;;;;775921;180;919391;-66
2024/01/22 03:52:23;;;;;;;13.97;7.50;;;;;;;;;;784719;179;1021421;-65
2024/01/22 03:54:49;;;;;;;12.05;7.20;;;;;;;;;;773465;179;918716;-65
2024/01/22 03:57:15;;;;;;;10.50;6.93;;;;;;;;;;775696;179;920152;-66
2024/01/22 03:59:41;;;;;;;14.17;8.20;;;;;;;;;;775473;180;1118916;-65
2024/01/22 04:02:07;;;;;;;14.63;7.20;;;;;;;;;;772822;179;919269;-65
2024/01/22 04:04:33;;;;;;;10.47;6.80;;;;;;;;;;772107;179;917884;-65
2024/01/22 04:06:59;;;;;;;15.30;7.93;;;;;;;;;;778529;180;919126;-65
2024/01/22 04:09:25;;;;;;;12.77;6.60;;;;;;;;;;773381;180;919552;-65
2024/01/22 04:11:50;;;;;;;12.60;6.83;;;;;;;;;;773472;179;920126;-65
2024/01/22 04:14:16;;;;;;;12.10;7.32;;;;;;;;;;770981;179;918370;-65
2024/01/22 04:16:42;;;;;;;13.50;7.57;;;;;;;;;;781348;177;901428;-65
2024/01/22 04:19:08;;;;;;;9.67;6.13;;;;;;;;;;760437;182;919238;-65
2024/01/22 04:21:34;;;;;;;9.30;6.80;;;;;;;;;;769002;180;918870;-65
2024/01/22 04:24:00;;;;;;;12.82;6.85;;;;;;;;;;778955;179;919113;-67
2024/01/22 04:26:25;;;;;;;14.90;9.47;;;;;;;;;;772886;179;1016794;-65
2024/01/22 04:28:51;;;;;;;9.63;6.72;;;;;;;;;;775733;179;1020503;-65
2024/01/22 04:31:17;;;;;;;13.10;7.50;;;;;;;;;;784041;176;917759;-65
2024/01/22 04:33:43;;;;;;;15.33;7.17;;;;;;;;;;775507;178;1123357;-65
2024/01/22 04:36:09;;;;;;;13.00;6.53;;;;;;;;;;775870;179;919614;-64
2024/01/22 04:38:35;;;;;;;10.17;5.57;;;;;;;;;;770073;180;1021647;-64
2024/01/22 04:41:00;;;;;;;10.70;7.00;;;;;;;;;;775525;179;1021643;-65
2024/01/22 04:43:26;;;;;;;9.23;6.47;;;;;;;;;;776987;180;919728;-65
2024/01/22 04:45:52;;;;;;;11.68;7.32;;;;;;;;;;775893;180;1019931;-64
2024/01/22 04:48:18;;;;;;;11.60;6.23;;;;;;;;;;777165;179;918062;-65
2024/01/22 04:50:44;;;;;;;10.50;5.83;;;;;;;;;;769223;179;918540;-65
2024/01/22 04:53:10;;;;;;;10.50;7.33;;;;;;;;;;769088;179;920813;-66
2024/01/22 04:55:36;;;;;;;13.43;7.73;;;;;;;;;;767819;180;925040;-65
2024/01/22 04:58:01;;;;;;;11.70;7.27;;;;;;;;;;768179;179;926614;-65
2024/01/22 05:00:27;;;;;;;11.03;6.57;;;;;;;;;;771250;180;914369;-67
2024/01/22 05:02:53;;;;;;;13.87;6.50;;;;;;;;;;778771;179;918081;-65
2024/01/22 05:05:19;;;;;;;14.60;6.83;;;;;;;;;;773350;179;919347;-65
2024/01/22 05:07:45;;;;;;;13.03;7.73;;;;;;;;;;772479;180;919734;-65
2024/01/22 05:10:13;;;;;;;13.23;7.47;;;;;;;;;;775839;179;918608;-65
2024/01/22 05:12:37;;;;;;;14.63;6.97;;;;;;;;;;779084;180;623895;-65
2024/01/22 05:15:04;;;;;;;9.53;7.07;;;;;;;;;;776506;180;920390;-65
2024/01/22 05:17:29;;;;;;;16.80;7.47;;;;;;;;;;777988;180;623736;-65
2024/01/22 05:19:55;;;;;;;11.50;7.60;;;;;;;;;;783810;179;618436;-65
2024/01/22 05:22:21;;;;;;;13.40;8.00;;;;;;;;;;777920;179;918954;-66
2024/01/22 05:24:47;;;;;;;14.83;8.70;;;;;;;;;;776445;179;915219;-65
2024/01/22 05:27:13;;;;;;;13.77;7.37;;;;;;;;;;770362;180;618709;-66
2024/01/22 05:29:38;;;;;;;14.50;7.37;;;;;;;;;;765049;180;930396;-65
2024/01/22 05:32:04;;;;;;;12.10;6.93;;;;;;;;;;750904;185;624357;-66
2024/01/22 05:34:30;;;;;;;14.37;9.17;;;;;;;;;;761340;181;918174;-66
2024/01/22 05:36:56;;;;;;;15.03;7.30;;;;;;;;;;778532;180;724723;-66
2024/01/22 05:39:22;;;;;;;15.17;7.33;;;;;;;;;;778371;180;630661;-65
2024/01/22 05:41:48;;;;;;;12.77;6.90;;;;;;;;;;777107;178;638253;-66
2024/01/22 05:44:13;;;;;;;14.67;7.83;;;;;;;;;;772402;181;621923;-66
2024/01/22 05:46:39;;;;;;;16.20;8.43;;;;;;;;;;774579;179;619636;-65
2024/01/22 05:49:05;;;;;;;12.93;7.47;;;;;;;;;;778919;177;637351;-65
2024/01/22 05:51:31;;;;;;;16.97;10.70;;;;;;;;;;772845;180;622467;-65
2024/01/22 05:53:57;;;;;;;15.40;7.87;;;;;;;;;;778489;179;738831;-66
2024/01/22 05:56:26;;;;;;;14.97;7.17;;;;;;;;;;776122;180;628752;-64
2024/01/22 05:58:52;;;;;;;12.70;8.40;;;;;;;;;;773325;179;629649;-66
2024/01/22 06:01:19;;;;;;;14.00;7.30;;;;;;;;;;769685;182;627150;-65
2024/01/22 06:03:44;;;;;;;12.03;8.33;;;;;;;;;;774674;179;635887;-65
2024/01/22 06:06:10;;;;;;;12.90;6.87;;;;;;;;;;772260;179;1022205;-65
2024/01/22 06:08:36;;;;;;;12.40;6.80;;;;;;;;;;783853;179;613063;-64
2024/01/22 06:11:04;;;;;;;13.60;7.13;;;;;;;;;;774198;179;924364;-65
2024/01/22 06:13:29;;;;;;;15.55;7.62;;;;;;;;;;768928;180;920894;-65
2024/01/22 06:15:53;;;;;;;12.13;7.60;;;;;;;;;;775455;180;919698;-65
2024/01/22 06:18:19;;;;;;;13.17;8.03;;;;;;;;;;774905;179;893984;-65
2024/01/22 06:20:45;;;;;;;11.80;7.13;;;;;;;;;;774448;179;919072;-64
2024/01/22 06:23:11;;;;;;;11.57;6.87;;;;;;;;;;774834;180;918001;-65
2024/01/22 06:25:37;;;;;;;10.37;8.23;;;;;;;;;;776359;180;917372;-65
2024/01/22 06:28:03;;;;;;;9.40;5.93;;;;;;;;;;776892;180;916366;-65
2024/01/22 06:30:29;;;;;;;11.53;7.13;;;;;;;;;;777143;180;917939;-66
2024/01/22 06:32:55;;;;;;;11.20;7.00;;;;;;;;;;782374;180;629559;-66
2024/01/22 06:35:20;;;;;;;12.50;6.77;;;;;;;;;;775746;179;891221;-66
2024/01/22 06:37:46;;;;;;;12.03;6.67;;;;;;;;;;771224;179;919421;-65
2024/01/22 06:40:12;;;;;;;9.50;5.70;;;;;;;;;;775814;180;918565;-65
2024/01/22 06:42:38;;;;;;;11.33;7.30;;;;;;;;;;778355;180;633583;-65
2024/01/22 06:45:04;;;;;;;11.70;7.68;;;;;;;;;;776069;178;919126;-65
2024/01/22 06:47:30;;;;;;;11.83;7.57;;;;;;;;;;779080;180;918550;-65
2024/01/22 06:49:56;;;;;;;13.03;7.07;;;;;;;;;;773125;179;915356;-65
2024/01/22 06:52:22;;;;;;;10.27;6.60;;;;;;;;;;778615;178;624251;-65
2024/01/22 06:54:48;;;;;;;10.87;6.97;;;;;;;;;;764539;181;918587;-66
2024/01/22 06:57:14;;;;;;;11.77;6.43;;;;;;;;;;775985;179;919729;-65
2024/01/22 06:59:39;;;;;;;15.67;6.63;;;;;;;;;;771275;180;919088;-65
2024/01/22 07:02:06;;;;;;;11.50;5.93;;;;;;;;;;775806;179;918994;-65
2024/01/22 07:04:32;;;;;;;9.70;6.80;;;;;;;;;;779059;180;918623;-65
2024/01/22 07:06:57;;;;;;;10.40;7.00;;;;;;;;;;769327;180;920131;-65
2024/01/22 07:09:23;;;;;;;9.10;5.93;;;;;;;;;;774033;179;921773;-65
2024/01/22 07:11:49;;;;;;;10.53;5.93;;;;;;;;;;780261;180;921012;-65
2024/01/22 07:14:16;;;;;;;12.57;6.40;;;;;;;;;;777345;179;921185;-65
2024/01/22 07:16:42;;;;;;;10.83;6.10;;;;;;;;;;773365;180;1014526;-66
2024/01/22 07:19:08;;;;;;;12.33;6.20;;;;;;;;;;770944;179;918584;-66
2024/01/22 07:21:34;;;;;;;13.30;6.47;;;;;;;;;;770772;179;1020387;-66
2024/01/22 07:24:00;;;;;;;9.90;5.90;;;;;;;;;;778690;179;916024;-65
2024/01/22 07:26:26;;;;;;;10.70;7.00;;;;;;;;;;775607;177;914497;-66
2024/01/22 07:28:52;;;;;;;9.60;6.03;;;;;;;;;;773853;180;1120200;-64
2024/01/22 07:31:17;;;;;;;10.27;5.47;;;;;;;;;;764992;179;911877;-65
2024/01/22 07:33:43;;;;;;;9.17;4.90;;;;;;;;;;774841;180;919887;-66
2024/01/22 07:36:09;;;;;;;11.73;5.63;;;;;;;;;;775911;180;919385;-65
2024/01/22 07:38:35;;;;;;;11.30;5.80;;;;;;;;;;772568;180;1057758;-66
2024/01/22 07:41:01;;;;;;;10.60;5.53;;;;;;;;;;776279;179;918052;-66
2024/01/22 07:43:27;;;;;;;10.77;6.10;;;;;;;;;;775368;180;917754;-68
2024/01/22 07:45:52;;;;;;;9.40;5.40;;;;;;;;;;776450;179;861531;-67
2024/01/22 07:48:18;;;;;;;8.85;4.87;;;;;;;;;;776295;179;624793;-67
2024/01/22 07:50:44;;;;;;;11.40;5.83;;;;;;;;;;775556;179;918153;-67
2024/01/22 07:53:10;;;;;;;14.03;5.50;;;;;;;;;;779521;180;710567;-67
2024/01/22 07:55:36;;;;;;;10.03;5.00;;;;;;;;;;763105;183;911392;-67
2024/01/22 07:58:02;;;;;;;8.10;4.73;;;;;;;;;;772053;179;921461;-67
2024/01/22 08:00:28;;;;;;;8.27;4.90;;;;;;;;;;780223;179;918730;-68
2024/01/22 08:02:53;;;;;;;10.17;4.70;;;;;;;;;;774325;179;918697;-68
2024/01/22 08:05:19;;;;;;;8.23;4.40;;;;;;;;;;777925;179;1016035;-67
2024/01/22 08:07:45;;;;;;;7.80;4.20;;;;;;;;;;777164;179;919098;-68
2024/01/22 08:10:12;;;;;;;7.13;4.43;;;;;;;;;;775006;179;919122;-69
2024/01/22 08:12:37;;;;;;;6.90;4.32;;;;;;;;;;777648;179;920033;-68
2024/01/22 08:15:03;;;;;;;9.83;4.77;;;;;;;;;;771762;180;926581;-69
2024/01/22 08:17:29;;;;;;;9.40;4.93;;;;;;;;;;772083;179;919008;-68
2024/01/22 08:19:55;;;;;;;10.35;4.15;;;;;;;;;;770571;179;919366;-68
2024/01/22 08:22:20;;;;;;;8.50;5.13;;;;;;;;;;770912;180;918482;-68
2024/01/22 08:24:46;;;;;;;8.13;3.43;;;;;;;;;;776456;180;918762;-67
2024/01/22 08:27:12;;;;;;;6.10;4.00;;;;;;;;;;775236;180;919072;-69
2024/01/22 08:29:38;;;;;;;8.03;4.13;;;;;;;;;;770093;179;944126;-68
2024/01/22 08:32:04;;;;;;;9.50;4.53;;;;;;;;;;779838;180;919685;-68
2024/01/22 08:34:30;;;;;;;7.80;3.50;;;;;;;;;;773167;179;1021271;-68
2024/01/22 08:36:55;;;;;;;5.17;3.33;;;;;;;;;;774294;180;919262;-69
2024/01/22 08:39:21;;;;;;;7.53;3.73;;;;;;;;;;782307;179;919901;-68
2024/01/22 08:41:47;;;;;;;7.30;4.20;;;;;;;;;;773583;180;920370;-68
2024/01/22 08:44:13;;;;;;;6.60;3.80;;;;;;;;;;771273;179;920565;-67
2024/01/22 08:46:39;;;;;;;7.37;3.87;;;;;;;;;;772278;180;919975;-69
2024/01/22 08:49:05;;;;;;;6.60;3.40;;;;;;;;;;778741;180;1024108;-68
2024/01/22 08:51:31;;;;;;;8.20;4.10;;;;;;;;;;770098;180;915040;-69
2024/01/22 08:53:56;;;;;;;6.18;3.80;;;;;;;;;;770080;180;920795;-69
2024/01/22 08:56:22;;;;;;;8.83;4.80;;;;;;;;;;780594;179;917460;-69
2024/01/22 08:58:48;;;;;;;9.27;5.22;;;;;;;;;;774059;180;915565;-69
2024/01/22 09:01:14;;;;;;;7.77;3.93;;;;;;;;;;772727;180;916309;-69
2024/01/22 09:03:40;;;;;;;5.03;3.37;;;;;;;;;;771498;177;1228930;-68
2024/01/22 09:06:06;;;;;;;7.30;3.20;;;;;;;;;;759195;180;1017725;-68
2024/01/22 09:08:34;;;;;;;8.88;4.35;;;;;;;;;;769147;180;1119163;-69
2024/01/22 09:11:02;;;;;;;6.10;2.97;;;;;;;;;;769994;180;919690;-69
2024/01/22 09:13:27;;;;;;;8.80;4.73;;;;;;;;;;779260;180;1016472;-69
2024/01/22 09:15:53;;;;;;;5.33;3.27;;;;;;;;;;772868;178;918325;-69
2024/01/22 09:18:19;;;;;;;4.70;3.20;;;;;;;;;;762978;179;931205;-68
2024/01/22 09:20:45;;;;;;;9.20;4.10;;;;;;;;;;779344;179;919385;-69
2024/01/22 09:23:11;;;;;;;7.43;3.73;;;;;;;;;;775409;179;916236;-69
2024/01/22 09:25:37;;;;;;;7.10;3.97;;;;;;;;;;771102;180;919864;-69
2024/01/22 09:28:03;;;;;;;5.60;3.00;;;;;;;;;;779811;180;919444;-68
2024/01/22 09:30:28;;;;;;;6.03;3.07;;;;;;;;;;777806;179;919320;-69
2024/01/22 09:32:57;;;;;;;8.07;3.13;;;;;;;;;;773154;180;922273;-68
2024/01/22 09:35:20;;;;;;;6.43;3.00;;;;;;;;;;773962;179;919438;-68
2024/01/22 09:37:46;;;;;;;5.87;3.00;;;;;;;;;;776291;180;899306;-68
2024/01/22 09:40:13;;;;;;;6.97;4.10;;;;;;;;;;773506;179;921183;-68
2024/01/22 09:42:38;;;;;;;5.63;3.10;;;;;;;;;;773140;180;920326;-68
2024/01/22 09:45:04;;;;;;;12.40;3.33;;;;;;;;;;777454;180;916888;-68
2024/01/22 09:47:30;;;;;;;5.23;3.30;;;;;;;;;;773741;179;916365;-69
2024/01/22 09:49:55;;;;;;;4.82;3.28;;;;;;;;;;774721;179;920877;-68
2024/01/22 09:52:21;;;;;;;7.07;3.40;;;;;;;;;;779772;179;950479;-69
2024/01/22 09:54:48;;;;;;;6.10;3.20;;;;;;;;;;773844;179;945675;-68
2024/01/22 09:57:14;;;;;;;7.13;3.40;;;;;;;;;;770858;180;918942;-68
2024/01/22 09:59:40;;;;;;;8.83;3.97;;;;;;;;;;771553;180;1012190;-69
2024/01/22 10:02:05;;;;;;;6.20;2.83;;;;;;;;;;777712;180;921056;-68
2024/01/22 10:04:31;;;;;;;5.03;2.53;;;;;;;;;;774499;179;928423;-68
2024/01/22 10:06:57;;;;;;;6.10;3.70;;;;;;;;;;771708;180;911070;-69
2024/01/22 10:09:23;;;;;;;5.60;3.10;;;;;;;;;;778091;180;919499;-68
2024/01/22 10:11:49;;;;;;;7.60;3.83;;;;;;;;;;770492;180;920390;-68
2024/01/22 10:14:15;;;;;;;10.83;3.73;;;;;;;;;;775580;179;914546;-69
2024/01/22 10:16:41;;;;;;;8.30;3.30;;;;;;;;;;778785;180;1230841;-69
2024/01/22 10:19:08;;;;;;;5.77;3.47;;;;;;;;;;774864;179;919111;-69
2024/01/22 10:21:32;;;;;;;5.97;3.17;;;;;;;;;;771757;180;888608;-69
2024/01/22 10:23:59;;;;;;;5.57;3.07;;;;;;;;;;775935;180;914125;-69
2024/01/22 10:26:25;;;;;;;6.03;3.90;;;;;;;;;;763439;180;915950;-69
2024/01/22 10:28:51;;;;;;;6.10;3.20;;;;;;;;;;764489;180;916007;-69
2024/01/22 10:31:17;;;;;;;6.83;3.87;;;;;;;;;;773577;179;916483;-69
2024/01/22 10:33:42;;;;;;;6.00;2.83;;;;;;;;;;780657;179;1177715;-69
2024/01/22 10:36:13;;;;;;;6.40;3.20;;;;;;;;;;774764;179;918904;-69
2024/01/22 10:38:39;;;;;;;5.97;3.28;;;;;;;;;;773443;179;924957;-69
2024/01/22 10:41:04;;;;;;;7.80;4.67;;;;;;;;;;785101;179;669837;-68
2024/01/22 10:43:30;;;;;;;5.10;3.83;;;;;;;;;;776707;180;917529;-69
2024/01/22 10:45:56;;;;;;;7.37;3.30;;;;;;;;;;774796;180;918501;-69
2024/01/22 10:48:23;;;;;;;8.00;3.07;;;;;;;;;;772802;180;927736;-69
2024/01/22 10:50:48;;;;;;;6.73;3.67;;;;;;;;;;770726;180;912206;-69
2024/01/22 10:53:14;;;;;;;11.40;4.40;;;;;;;;;;765867;180;919864;-68
2024/01/22 10:55:40;;;;;;;6.10;3.13;;;;;;;;;;771177;180;919471;-69
2024/01/22 10:58:08;;;;;;;7.70;3.60;;;;;;;;;;776684;180;919500;-68
2024/01/22 11:00:32;;;;;;;8.07;3.57;;;;;;;;;;775793;180;919460;-69
2024/01/22 11:02:57;;;;;;;4.93;3.10;;;;;;;;;;770259;180;919610;-69
2024/01/22 11:05:23;;;;;;;5.50;3.50;;;;;;;;;;776731;180;919902;-69
2024/01/22 11:07:49;;;;;;;6.43;3.30;;;;;;;;;;770357;180;919577;-69
2024/01/22 11:10:15;;;;;;;4.73;2.53;;;;;;;;;;774526;180;919907;-69
2024/01/22 11:12:42;;;;;;;7.12;3.78;;;;;;;;;;779897;179;917488;-69
2024/01/22 11:15:08;;;;;;;5.20;3.20;;;;;;;;;;766412;180;919423;-69
2024/01/22 11:17:34;;;;;;;8.17;3.97;;;;;;;;;;774878;179;919433;-69
2024/01/22 11:20:05;;;;;;;5.53;2.60;;;;;;;;;;775598;179;919374;-69
2024/01/22 11:22:31;;;;;;;5.37;2.73;;;;;;;;;;778322;179;919794;-69
2024/01/22 11:25:00;;;;;;;6.23;3.07;;;;;;;;;;773184;179;919011;-70
2024/01/22 11:27:26;;;;;;;5.30;2.87;;;;;;;;;;771319;180;1082887;-70
2024/01/22 11:29:51;;;;;;;5.03;3.10;;;;;;;;;;774483;179;917718;-70
2024/01/22 11:32:23;;;;;;;4.93;2.80;;;;;;;;;;770587;180;828188;-69
2024/01/22 11:34:49;;;;;;;6.30;4.20;;;;;;;;;;780451;178;728000;-70
2024/01/22 11:37:15;;;;;;;5.57;3.83;;;;;;;;;;776102;180;919301;-69
2024/01/22 11:39:42;;;;;;;10.37;4.03;;;;;;;;;;779213;179;919251;-69
2024/01/22 11:42:14;;;;;;;6.07;3.00;;;;;;;;;;776869;179;918184;-70
2024/01/22 11:44:40;;;;;;;5.40;3.20;;;;;;;;;;772930;176;924605;-69
2024/01/22 11:47:09;;;;;;;6.07;2.93;;;;;;;;;;756414;181;1023387;-69
2024/01/22 11:49:32;;;;;;;6.30;3.13;;;;;;;;;;779294;180;1021116;-69
2024/01/22 11:51:57;;;;;;;6.53;3.90;;;;;;;;;;775113;179;1124296;-69
2024/01/22 11:54:24;;;;;;;8.45;4.12;;;;;;;;;;770544;179;1021783;-69
2024/01/22 11:56:49;;;;;;;4.63;3.13;;;;;;;;;;780854;179;919005;-69
2024/01/22 11:59:15;;;;;;;5.47;3.17;;;;;;;;;;775496;180;1022019;-69
2024/01/22 12:01:42;;;;;;;5.00;3.07;;;;;;;;;;773010;179;916211;-69
2024/01/22 12:04:10;;;;;;;4.70;3.37;;;;;;;;;;776393;180;816639;-69
2024/01/22 12:06:42;;;;;;;6.03;3.07;;;;;;;;;;773445;179;919107;-69
2024/01/22 12:09:08;;;;;;;8.87;3.70;;;;;;;;;;767405;180;919675;-69
2024/01/22 12:11:34;;;;;;;5.50;3.45;;;;;;;;;;774307;179;919066;-69
2024/01/22 12:14:00;;;;;;;6.63;3.70;;;;;;;;;;776362;180;921326;-69
2024/01/22 12:16:26;;;;;;;6.85;3.90;;;;;;;;;;771564;180;919964;-69
2024/01/22 12:18:52;;;;;;;6.23;3.77;;;;;;;;;;769706;180;919836;-69
2024/01/22 12:21:17;;;;;;;7.68;3.55;;;;;;;;;;774559;180;929523;-69
2024/01/22 12:23:43;;;;;;;8.67;3.47;;;;;;;;;;772074;180;918728;-69
2024/01/22 12:26:12;;;;;;;8.43;3.80;;;;;;;;;;769517;177;919321;-69
2024/01/22 12:28:38;;;;;;;6.10;3.80;;;;;;;;;;773725;180;918871;-69
2024/01/22 12:31:04;;;;;;;6.00;3.30;;;;;;;;;;780501;180;919730;-69
2024/01/22 12:33:30;;;;;;;8.23;3.83;;;;;;;;;;777662;180;918854;-69
2024/01/22 12:36:01;;;;;;;6.50;3.67;;;;;;;;;;772237;180;915638;-69
2024/01/22 12:38:27;;;;;;;8.67;3.43;;;;;;;;;;773340;179;915723;-69
2024/01/22 12:40:57;;;;;;;5.43;2.53;;;;;;;;;;781007;180;915442;-69
2024/01/22 12:43:22;;;;;;;8.17;3.97;;;;;;;;;;779739;179;624875;-69
2024/01/22 12:45:48;;;;;;;4.93;3.27;;;;;;;;;;775001;179;1020541;-69
2024/01/22 12:48:14;;;;;;;8.33;3.50;;;;;;;;;;773481;179;1020898;-69
2024/01/22 12:50:40;;;;;;;6.30;3.47;;;;;;;;;;781848;178;613829;-69
2024/01/22 12:53:06;;;;;;;9.52;3.22;;;;;;;;;;771483;178;919260;-69
2024/01/22 12:55:32;;;;;;;8.90;3.57;;;;;;;;;;766804;180;1022172;-69
2024/01/22 12:57:57;;;;;;;8.23;4.30;;;;;;;;;;780731;179;919038;-69
2024/01/22 13:00:24;;;;;;;6.37;3.53;;;;;;;;;;775115;180;918271;-69
2024/01/22 13:02:49;;;;;;;4.63;2.37;;;;;;;;;;775549;179;918819;-69
2024/01/22 13:05:15;;;;;;;6.93;3.30;;;;;;;;;;778566;180;919722;-69
2024/01/22 13:07:41;;;;;;;5.77;3.07;;;;;;;;;;774772;180;916774;-69
2024/01/22 13:10:07;;;;;;;7.00;3.77;;;;;;;;;;777299;180;919948;-69
2024/01/22 13:12:33;;;;;;;7.17;3.60;;;;;;;;;;781214;179;918206;-70
2024/01/22 13:14:59;;;;;;;6.67;3.40;;;;;;;;;;770094;180;934895;-69
2024/01/22 13:17:25;;;;;;;6.27;3.97;;;;;;;;;;776234;179;920819;-69
2024/01/22 13:19:50;;;;;;;4.87;2.90;;;;;;;;;;780393;179;913661;-69
2024/01/22 13:22:16;;;;;;;4.73;2.73;;;;;;;;;;775247;180;916663;-69
2024/01/22 13:24:42;;;;;;;5.60;2.87;;;;;;;;;;775849;180;914360;-69
2024/01/22 13:27:08;;;;;;;6.00;3.03;;;;;;;;;;776986;178;915309;-69
2024/01/22 13:29:34;;;;;;;5.40;2.90;;;;;;;;;;773238;180;919019;-69
2024/01/22 13:31:59;;;;;;;5.20;3.23;;;;;;;;;;773302;179;921187;-69
2024/01/22 13:34:26;;;;;;;9.23;4.40;;;;;;;;;;772724;179;916149;-69
2024/01/22 13:36:52;;;;;;;8.70;4.30;;;;;;;;;;772672;180;916339;-69
2024/01/22 13:39:17;;;;;;;6.03;3.50;;;;;;;;;;769816;179;919291;-69
2024/01/22 13:41:43;;;;;;;8.85;3.75;;;;;;;;;;772390;180;919055;-69
2024/01/22 13:44:10;;;;;;;8.00;4.10;;;;;;;;;;768401;181;920593;-70
2024/01/22 13:46:36;;;;;;;9.90;4.55;;;;;;;;;;763026;180;918951;-69
2024/01/22 13:49:03;;;;;;;9.77;3.73;;;;;;;;;;774569;180;918432;-69
2024/01/22 13:51:28;;;;;;;8.33;3.90;;;;;;;;;;770189;180;924892;-69
2024/01/22 13:53:54;;;;;;;7.07;3.77;;;;;;;;;;776246;179;918203;-69
2024/01/22 13:56:20;;;;;;;7.43;3.70;;;;;;;;;;777870;180;920948;-69
2024/01/22 13:58:46;;;;;;;7.50;3.87;;;;;;;;;;774262;179;919238;-69
2024/01/22 14:01:11;;;;;;;8.67;3.83;;;;;;;;;;776053;179;919388;-69
2024/01/22 14:03:38;;;;;;;6.80;4.00;;;;;;;;;;776803;179;1021250;-69
2024/01/22 14:06:03;;;;;;;8.30;4.60;;;;;;;;;;779223;179;919429;-69
2024/01/22 14:08:29;;;;;;;9.10;4.67;;;;;;;;;;772081;180;919121;-69
2024/01/22 14:10:55;;;;;;;9.17;4.90;;;;;;;;;;777416;179;919703;-69
2024/01/22 14:13:21;;;;;;;9.37;5.50;;;;;;;;;;775843;179;938190;-70